Time;durP1;ratioP1;P1;durP2;ratioP2;P2;SDS_P1;SDS_P2;PMS_P1;PMS_P2;Temp;Humidity;BMP_temperature;BMP_pressure;BME280_temperature;BME280_humidity;BME280_pressure;Samples;Min_cycle;Max_cycle;Signal;HPM_P1;HPM_P2
2023/07/07 00:00:12;;;;;;;89.50;54.53;;;18.70;74.30;;;;;;4933586;28;90074;-42
2023/07/07 00:02:38;;;;;;;88.53;54.30;;;18.70;74.30;;;;;;4917263;28;92827;-42
2023/07/07 00:05:05;;;;;;;88.18;54.22;;;18.60;74.30;;;;;;4934456;28;90833;-42
2023/07/07 00:07:31;;;;;;;87.68;54.35;;;18.60;74.40;;;;;;4927002;28;89968;-42
2023/07/07 00:09:57;;;;;;;88.25;54.50;;;18.60;74.40;;;;;;4932027;28;89598;-42
2023/07/07 00:12:22;;;;;;;90.60;54.40;;;18.50;74.40;;;;;;4939696;28;91090;-42
2023/07/07 00:14:50;;;;;;;88.57;54.58;;;18.50;74.50;;;;;;4940434;28;89716;-45
2023/07/07 00:17:16;;;;;;;89.30;54.58;;;18.50;74.50;;;;;;4931538;28;91798;-42
2023/07/07 00:19:42;;;;;;;88.45;54.42;;;18.50;74.50;;;;;;4931490;28;88703;-44
2023/07/07 00:22:07;;;;;;;89.25;55.00;;;18.40;74.70;;;;;;4933379;28;91966;-43
2023/07/07 00:24:35;;;;;;;89.25;54.72;;;18.40;74.70;;;;;;4935143;28;90069;-42
2023/07/07 00:27:01;;;;;;;87.32;54.67;;;18.40;74.70;;;;;;4933213;28;90372;-43
2023/07/07 00:29:26;;;;;;;90.63;54.78;;;18.40;74.80;;;;;;4935376;28;90930;-41
2023/07/07 00:31:52;;;;;;;88.57;54.58;;;18.30;74.80;;;;;;4932190;28;91814;-41
2023/07/07 00:34:18;;;;;;;88.63;54.38;;;18.30;74.70;;;;;;4943460;28;89636;-41
2023/07/07 00:36:43;;;;;;;87.30;54.70;;;18.30;74.80;;;;;;4936827;28;90234;-42
2023/07/07 00:39:09;;;;;;;89.80;54.55;;;18.30;74.70;;;;;;4940899;28;89535;-42
2023/07/07 00:41:35;;;;;;;87.75;53.97;;;18.20;75.10;;;;;;4942057;28;89692;-43
2023/07/07 00:44:10;;;;;;;88.30;54.15;;;18.20;74.90;;;;;;4934316;28;89037;-42
2023/07/07 00:46:37;;;;;;;92.05;54.47;;;18.20;74.90;;;;;;4939302;28;90655;-42
2023/07/07 00:49:08;;;;;;;87.38;54.42;;;18.10;75.30;;;;;;4947759;28;89502;-41
2023/07/07 00:51:50;;;;;;;86.80;54.50;;;18.20;75.00;;;;;;4937612;28;93239;-41
2023/07/07 00:54:23;;;;;;;87.47;54.42;;;18.20;75.40;;;;;;4945457;28;89893;-43
2023/07/07 00:56:52;;;;;;;88.60;54.15;;;18.10;75.40;;;;;;4936493;28;90860;-42
2023/07/07 00:59:25;;;;;;;88.63;53.95;;;18.10;75.80;;;;;;4938216;28;91266;-41
2023/07/07 01:01:56;;;;;;;87.75;54.10;;;18.10;75.60;;;;;;4934960;28;89842;-41
2023/07/07 01:04:23;;;;;;;86.75;54.10;;;18.10;75.90;;;;;;4937627;28;89733;-43
2023/07/07 01:06:57;;;;;;;87.22;53.97;;;18.10;75.60;;;;;;4934761;28;90111;-41
2023/07/07 01:09:22;;;;;;;88.10;54.17;;;18.00;76.00;;;;;;4926947;28;94434;-42
2023/07/07 01:11:48;;;;;;;88.93;54.45;;;18.00;75.80;;;;;;4937973;28;92039;-43
2023/07/07 01:14:25;;;;;;;86.85;54.08;;;18.00;75.90;;;;;;4940857;28;89812;-42
2023/07/07 01:17:13;;;;;;;87.55;53.90;;;18.00;75.70;;;;;;4933864;28;90849;-41
2023/07/07 01:19:58;;;;;;;87.70;54.60;;;18.00;75.90;;;;;;4938175;28;89934;-43
2023/07/07 01:22:43;;;;;;;87.72;54.13;;;18.00;75.70;;;;;;4938439;28;89921;-41
2023/07/07 01:25:23;;;;;;;86.75;53.88;;;18.00;75.90;;;;;;4944595;28;93648;-44
2023/07/07 01:27:55;;;;;;;87.33;54.10;;;18.00;75.90;;;;;;4938609;28;90144;-43
2023/07/07 01:30:27;;;;;;;87.57;54.20;;;17.90;75.60;;;;;;4938733;28;89453;-44
2023/07/07 01:32:53;;;;;;;87.63;54.28;;;17.90;75.80;;;;;;4937216;28;89576;-42
2023/07/07 01:35:20;;;;;;;87.45;54.30;;;17.90;75.90;;;;;;4939566;28;89258;-44
2023/07/07 01:37:58;;;;;;;87.50;54.38;;;17.90;75.80;;;;;;4936669;28;90239;-43
2023/07/07 01:40:50;;;;;;;86.28;53.72;;;17.90;76.00;;;;;;4939568;28;89931;-42
2023/07/07 01:43:31;;;;;;;87.63;54.60;;;17.90;76.00;;;;;;4944017;28;90547;-43
2023/07/07 01:46:06;;;;;;;87.68;54.45;;;17.90;75.80;;;;;;4945886;28;89499;-42
2023/07/07 01:48:57;;;;;;;87.80;54.22;;;17.90;76.00;;;;;;4944905;28;92576;-42
2023/07/07 01:51:27;;;;;;;87.78;54.22;;;17.90;76.00;;;;;;4940392;28;91060;-44
2023/07/07 01:53:55;;;;;;;87.03;54.03;;;17.90;75.80;;;;;;4943062;28;89902;-43
2023/07/07 01:56:24;;;;;;;88.45;54.30;;;17.80;75.70;;;;;;4939202;28;89627;-42
2023/07/07 01:58:50;;;;;;;86.00;53.97;;;17.90;75.80;;;;;;4942666;28;90516;-43
2023/07/07 02:01:18;;;;;;;87.03;54.13;;;17.80;75.90;;;;;;4946527;28;89307;-42
2023/07/07 02:03:44;;;;;;;86.85;54.03;;;17.80;75.70;;;;;;4940477;28;89660;-43
2023/07/07 02:06:09;;;;;;;88.63;54.33;;;17.80;75.50;;;;;;4938970;28;90616;-43
2023/07/07 02:08:35;;;;;;;86.80;54.15;;;17.80;75.50;;;;;;4938545;28;90740;-43
2023/07/07 02:11:00;;;;;;;88.15;54.38;;;17.80;75.40;;;;;;4941433;28;89882;-43
2023/07/07 02:13:26;;;;;;;88.38;54.08;;;17.80;75.60;;;;;;4937136;28;89874;-42
2023/07/07 02:15:52;;;;;;;86.95;54.00;;;17.80;75.60;;;;;;4934149;28;89569;-42
2023/07/07 02:18:18;;;;;;;85.78;53.72;;;17.80;75.60;;;;;;4942388;28;93646;-44
2023/07/07 02:20:44;;;;;;;87.53;54.30;;;17.70;75.30;;;;;;4934772;28;89473;-42
2023/07/07 02:23:10;;;;;;;88.22;54.08;;;17.70;75.40;;;;;;4938180;28;90314;-42
2023/07/07 02:25:35;;;;;;;86.93;53.90;;;17.70;75.30;;;;;;4946309;28;88845;-43
2023/07/07 02:28:01;;;;;;;87.65;54.25;;;17.70;75.60;;;;;;4940268;28;89806;-44
2023/07/07 02:30:26;;;;;;;86.53;54.00;;;17.70;75.70;;;;;;4937583;28;92564;-44
2023/07/07 02:32:52;;;;;;;87.72;54.10;;;17.70;75.90;;;;;;4920442;28;90754;-42
2023/07/07 02:35:18;;;;;;;87.10;53.95;;;17.60;75.60;;;;;;4946919;28;89566;-42
2023/07/07 02:37:44;;;;;;;86.43;53.72;;;17.60;75.60;;;;;;4935669;28;90351;-44
2023/07/07 02:40:09;;;;;;;87.15;54.28;;;17.60;75.80;;;;;;4940288;28;89932;-43
2023/07/07 02:42:36;;;;;;;86.85;54.10;;;17.60;75.80;;;;;;4923254;28;89840;-42
2023/07/07 02:45:01;;;;;;;86.53;54.08;;;17.60;75.90;;;;;;4939041;28;90311;-42
2023/07/07 02:47:28;;;;;;;86.50;53.78;;;17.60;75.80;;;;;;4933790;28;90425;-43
2023/07/07 02:49:54;;;;;;;85.95;53.72;;;17.60;76.10;;;;;;4949183;28;91080;-41
2023/07/07 02:52:20;;;;;;;87.78;54.30;;;17.50;76.20;;;;;;4936198;28;90788;-43
2023/07/07 02:54:45;;;;;;;88.53;53.60;;;17.60;76.50;;;;;;4935726;28;90070;-41
2023/07/07 02:57:11;;;;;;;87.30;54.10;;;17.50;76.00;;;;;;4936970;28;91365;-43
2023/07/07 02:59:37;;;;;;;86.93;54.13;;;17.50;76.20;;;;;;4938823;28;90140;-45
2023/07/07 03:02:03;;;;;;;87.13;54.17;;;17.50;76.30;;;;;;4942960;28;90651;-43
2023/07/07 03:04:28;;;;;;;87.32;53.65;;;17.50;76.30;;;;;;4937267;28;90123;-42
2023/07/07 03:06:54;;;;;;;85.30;53.78;;;17.50;76.60;;;;;;4940637;28;90938;-42
2023/07/07 03:09:20;;;;;;;86.20;53.83;;;17.50;76.40;;;;;;4945900;28;89997;-45
2023/07/07 03:11:46;;;;;;;86.50;54.08;;;17.50;76.20;;;;;;4939554;28;89531;-43
2023/07/07 03:14:11;;;;;;;86.72;54.20;;;17.50;76.40;;;;;;4937287;28;88665;-42
2023/07/07 03:16:46;;;;;;;86.40;53.92;;;17.50;75.90;;;;;;4946425;28;90666;-42
2023/07/07 03:19:12;;;;;;;87.38;54.63;;;17.50;76.60;;;;;;4941022;28;89543;-43
2023/07/07 03:21:38;;;;;;;87.10;53.88;;;17.50;76.90;;;;;;4933992;28;91871;-43
2023/07/07 03:24:04;;;;;;;87.43;54.08;;;17.40;76.30;;;;;;4942673;28;91030;-42
2023/07/07 03:26:30;;;;;;;85.90;53.92;;;17.40;75.90;;;;;;4943644;28;90278;-42
2023/07/07 03:28:56;;;;;;;86.85;53.83;;;17.40;75.50;;;;;;4939524;28;89927;-42
2023/07/07 03:31:27;;;;;;;86.05;53.55;;;17.40;75.90;;;;;;4935802;28;89639;-42
2023/07/07 03:33:55;;;;;;;87.18;53.75;;;17.40;75.90;;;;;;4925735;28;89477;-44
2023/07/07 03:36:24;;;;;;;85.63;53.42;;;17.40;75.60;;;;;;4940576;28;89699;-43
2023/07/07 03:38:50;;;;;;;85.75;53.75;;;17.40;75.30;;;;;;4936936;28;89886;-42
2023/07/07 03:41:19;;;;;;;85.57;53.63;;;17.40;75.80;;;;;;4941978;28;90078;-41
2023/07/07 03:43:45;;;;;;;86.07;53.72;;;17.40;75.40;;;;;;4931788;28;89670;-40
2023/07/07 03:46:22;;;;;;;85.82;53.83;;;17.40;75.80;;;;;;4936261;28;90902;-42
2023/07/07 03:48:48;;;;;;;87.07;53.70;;;17.40;75.50;;;;;;4938580;28;94973;-39
2023/07/07 03:51:15;;;;;;;87.68;53.67;;;17.40;76.00;;;;;;4939619;28;90092;-40
2023/07/07 03:53:42;;;;;;;85.90;53.70;;;17.40;76.50;;;;;;4938273;28;90057;-41
2023/07/07 03:56:08;;;;;;;86.38;53.78;;;17.40;76.50;;;;;;4944201;28;90870;-39
2023/07/07 03:58:34;;;;;;;87.32;53.95;;;17.40;76.00;;;;;;4941483;28;89784;-42
2023/07/07 04:01:04;;;;;;;87.05;53.90;;;17.40;75.90;;;;;;4940947;28;89470;-43
2023/07/07 04:03:30;;;;;;;88.10;54.13;;;17.40;75.60;;;;;;4936627;28;89404;-43
2023/07/07 04:05:56;;;;;;;85.35;53.40;;;17.30;75.50;;;;;;4932657;28;90114;-45
2023/07/07 04:08:23;;;;;;;85.88;53.80;;;17.30;75.50;;;;;;4933945;28;89600;-44
2023/07/07 04:11:06;;;;;;;87.55;53.75;;;17.30;75.50;;;;;;4934573;28;91058;-42
2023/07/07 04:13:34;;;;;;;86.47;53.80;;;17.30;75.20;;;;;;4940175;28;90280;-42
2023/07/07 04:16:12;;;;;;;86.30;53.80;;;17.40;75.30;;;;;;4936973;28;93787;-44
2023/07/07 04:18:39;;;;;;;85.25;52.97;;;17.30;75.30;;;;;;4929069;28;89823;-43
2023/07/07 04:21:10;;;;;;;85.93;54.05;;;17.40;75.60;;;;;;4933903;28;89822;-42
2023/07/07 04:23:37;;;;;;;85.70;53.67;;;17.40;75.70;;;;;;4934483;28;90182;-42
2023/07/07 04:26:04;;;;;;;85.60;53.47;;;17.40;75.40;;;;;;4931066;28;90993;-43
2023/07/07 04:28:30;;;;;;;86.40;53.65;;;17.40;75.50;;;;;;4924726;28;89687;-42
2023/07/07 04:30:57;;;;;;;86.70;53.83;;;17.40;75.10;;;;;;4932338;28;91698;-43
2023/07/07 04:33:25;;;;;;;85.65;53.78;;;17.40;75.00;;;;;;4938657;28;89659;-41
2023/07/07 04:35:52;;;;;;;87.72;53.72;;;17.40;75.20;;;;;;4936002;28;92370;-42
2023/07/07 04:38:23;;;;;;;88.00;53.72;;;17.50;75.10;;;;;;4936625;28;92085;-45
2023/07/07 04:40:49;;;;;;;85.75;53.58;;;17.50;75.00;;;;;;4936771;28;95636;-44
2023/07/07 04:43:14;;;;;;;85.57;53.55;;;17.50;75.40;;;;;;4935242;28;89662;-44
2023/07/07 04:45:40;;;;;;;86.95;53.83;;;17.60;74.60;;;;;;4933172;28;90581;-44
2023/07/07 04:48:06;;;;;;;86.15;53.42;;;17.60;75.60;;;;;;4918798;28;89481;-45
2023/07/07 04:50:34;;;;;;;87.13;53.78;;;17.60;74.90;;;;;;4937012;28;90370;-43
2023/07/07 04:53:00;;;;;;;87.60;53.83;;;17.70;75.30;;;;;;4937388;28;89012;-44
2023/07/07 04:55:25;;;;;;;86.10;53.88;;;17.60;75.00;;;;;;4933816;28;89655;-44
2023/07/07 04:57:51;;;;;;;86.40;53.88;;;17.70;74.70;;;;;;4937468;28;90028;-45
2023/07/07 05:00:17;;;;;;;86.45;53.47;;;17.80;74.70;;;;;;4929639;28;91565;-44
2023/07/07 05:02:44;;;;;;;85.97;53.92;;;17.80;75.30;;;;;;4926634;28;90665;-43
2023/07/07 05:05:10;;;;;;;89.15;54.15;;;17.80;75.70;;;;;;4934317;28;90030;-46
2023/07/07 05:07:35;;;;;;;86.00;53.40;;;17.80;74.70;;;;;;4933164;28;91118;-43
2023/07/07 05:10:01;;;;;;;85.85;53.92;;;17.90;74.60;;;;;;4929286;28;89910;-44
2023/07/07 05:12:26;;;;;;;86.55;53.55;;;17.90;76.20;;;;;;4932148;28;90402;-43
2023/07/07 05:14:52;;;;;;;87.00;53.58;;;17.90;75.60;;;;;;4940642;28;90240;-43
2023/07/07 05:17:18;;;;;;;87.05;53.65;;;17.90;74.90;;;;;;4933407;28;89400;-43
2023/07/07 05:19:44;;;;;;;86.68;53.58;;;18.00;74.30;;;;;;4936230;28;89538;-43
2023/07/07 05:22:09;;;;;;;87.38;54.00;;;18.00;75.90;;;;;;4944368;28;89767;-44
2023/07/07 05:24:35;;;;;;;88.13;54.13;;;18.00;77.40;;;;;;4934323;28;90888;-43
2023/07/07 05:27:01;;;;;;;86.25;53.92;;;18.10;75.30;;;;;;4934195;28;90296;-44
2023/07/07 05:29:26;;;;;;;86.30;53.75;;;18.10;76.20;;;;;;4938909;28;95062;-45
2023/07/07 05:31:52;;;;;;;87.15;53.80;;;18.20;75.70;;;;;;4938988;28;89520;-46
2023/07/07 05:34:19;;;;;;;86.13;53.75;;;18.20;75.50;;;;;;4939080;28;89428;-50
2023/07/07 05:36:45;;;;;;;86.07;53.72;;;18.20;74.80;;;;;;4929890;28;90382;-44
2023/07/07 05:39:11;;;;;;;86.63;54.05;;;18.30;74.80;;;;;;4933023;28;94128;-43
2023/07/07 05:41:36;;;;;;;86.15;53.80;;;18.30;74.80;;;;;;4942233;28;89127;-43
2023/07/07 05:44:02;;;;;;;86.75;53.78;;;18.40;74.80;;;;;;4938733;28;89773;-43
2023/07/07 05:46:27;;;;;;;87.55;53.78;;;18.40;73.40;;;;;;4934417;28;90318;-43
2023/07/07 05:48:53;;;;;;;88.13;53.88;;;18.40;74.40;;;;;;4942636;28;90360;-44
2023/07/07 05:51:19;;;;;;;87.82;54.00;;;18.50;75.20;;;;;;4943213;28;89449;-43
2023/07/07 05:53:45;;;;;;;91.32;54.63;;;18.50;75.90;;;;;;4935240;28;90167;-43
2023/07/07 05:56:30;;;;;;;89.25;54.63;;;18.60;77.50;;;;;;4932805;28;89740;-45
2023/07/07 05:58:56;;;;;;;95.38;55.00;;;18.70;77.00;;;;;;4940687;28;89810;-44
2023/07/07 06:01:22;;;;;;;93.43;54.85;;;18.80;76.90;;;;;;4939324;28;89783;-44
2023/07/07 06:03:47;;;;;;;93.18;55.08;;;18.80;76.40;;;;;;4939863;28;89466;-42
2023/07/07 06:06:13;;;;;;;92.07;54.97;;;18.90;75.50;;;;;;4943261;28;89959;-42
2023/07/07 06:08:40;;;;;;;96.43;55.85;;;18.90;74.90;;;;;;4932748;28;91815;-43
2023/07/07 06:11:06;;;;;;;92.35;54.72;;;19.00;74.30;;;;;;4913004;28;89997;-43
2023/07/07 06:13:32;;;;;;;91.55;55.25;;;19.00;73.40;;;;;;4917647;28;94019;-43
2023/07/07 06:15:58;;;;;;;93.75;54.85;;;19.10;72.80;;;;;;4938266;28;91119;-42
2023/07/07 06:18:25;;;;;;;90.78;54.63;;;19.10;72.10;;;;;;4928768;28;93458;-45
2023/07/07 06:20:52;;;;;;;95.45;55.28;;;19.10;71.80;;;;;;4925158;28;89991;-43
2023/07/07 06:23:19;;;;;;;93.93;55.28;;;19.20;71.70;;;;;;4938642;28;89700;-43
2023/07/07 06:25:44;;;;;;;91.43;54.95;;;19.20;71.40;;;;;;4934412;28;90103;-46
2023/07/07 06:28:10;;;;;;;91.40;55.03;;;19.30;71.30;;;;;;4936273;28;90318;-44
2023/07/07 06:30:35;;;;;;;94.35;54.95;;;19.30;71.00;;;;;;4936974;28;88920;-43
2023/07/07 06:33:02;;;;;;;90.90;54.85;;;19.30;70.90;;;;;;4942201;28;91801;-44
2023/07/07 06:35:28;;;;;;;90.68;54.80;;;19.40;70.90;;;;;;4922870;28;89978;-45
2023/07/07 06:37:54;;;;;;;95.68;55.05;;;19.40;70.60;;;;;;4941918;28;90611;-43
2023/07/07 06:40:20;;;;;;;92.20;54.90;;;19.50;70.50;;;;;;4936369;28;90092;-43
2023/07/07 06:42:46;;;;;;;94.38;54.95;;;19.60;70.30;;;;;;4932644;28;89884;-43
2023/07/07 06:45:12;;;;;;;91.22;54.88;;;19.60;70.00;;;;;;4938746;28;90613;-43
2023/07/07 06:47:37;;;;;;;96.22;55.42;;;19.70;69.60;;;;;;4941229;28;91418;-44
2023/07/07 06:50:03;;;;;;;91.35;54.97;;;19.70;69.50;;;;;;4935148;28;90548;-44
2023/07/07 06:52:28;;;;;;;91.15;55.10;;;19.80;69.60;;;;;;4934599;28;90720;-43
2023/07/07 06:54:57;;;;;;;89.47;54.65;;;19.80;69.10;;;;;;4937389;28;92335;-42
2023/07/07 06:57:23;;;;;;;92.57;54.85;;;19.90;69.10;;;;;;4942842;28;89435;-43
2023/07/07 06:59:48;;;;;;;90.82;55.15;;;19.90;68.70;;;;;;4942198;28;89332;-43
2023/07/07 07:02:14;;;;;;;92.25;54.97;;;20.00;68.80;;;;;;4934025;28;91090;-44
2023/07/07 07:04:40;;;;;;;96.72;55.40;;;20.00;68.60;;;;;;4935777;28;89767;-43
2023/07/07 07:07:08;;;;;;;90.55;55.22;;;20.20;64.30;;;;;;4930644;28;90475;-43
2023/07/07 07:09:34;;;;;;;94.72;55.67;;;20.50;64.40;;;;;;4930351;28;89573;-42
2023/07/07 07:11:59;;;;;;;97.70;55.08;;;20.60;62.70;;;;;;4935447;28;89515;-43
2023/07/07 07:14:25;;;;;;;92.65;55.47;;;20.70;62.30;;;;;;4940403;28;89800;-43
2023/07/07 07:16:51;;;;;;;90.82;54.95;;;20.80;62.40;;;;;;4933187;28;89924;-44
2023/07/07 07:19:16;;;;;;;93.97;55.00;;;20.90;61.80;;;;;;4933837;28;89688;-42
2023/07/07 07:21:42;;;;;;;98.68;55.45;;;20.90;60.70;;;;;;4931737;28;90233;-43
2023/07/07 07:24:07;;;;;;;94.25;55.55;;;21.00;60.30;;;;;;4931235;28;89583;-44
2023/07/07 07:26:33;;;;;;;99.88;56.25;;;21.10;60.30;;;;;;4931404;28;91022;-43
2023/07/07 07:28:58;;;;;;;95.75;55.17;;;21.20;60.50;;;;;;4932286;28;92247;-44
2023/07/07 07:31:26;;;;;;;92.35;55.17;;;21.20;58.80;;;;;;4939986;28;89793;-43
2023/07/07 07:33:53;;;;;;;93.45;55.17;;;21.30;59.50;;;;;;4938334;28;89966;-42
2023/07/07 07:36:19;;;;;;;93.32;55.40;;;21.40;58.70;;;;;;4935846;28;89513;-43
2023/07/07 07:38:45;;;;;;;93.80;55.78;;;21.40;59.00;;;;;;4932915;28;89355;-44
2023/07/07 07:41:11;;;;;;;106.75;57.08;;;21.40;58.50;;;;;;4934869;28;90101;-44
2023/07/07 07:43:36;;;;;;;94.90;55.75;;;21.50;59.30;;;;;;4932324;28;89891;-45
2023/07/07 07:46:02;;;;;;;94.45;55.67;;;21.50;58.30;;;;;;4938517;28;90373;-43
2023/07/07 07:48:27;;;;;;;105.63;57.55;;;21.60;58.80;;;;;;4927421;28;89732;-46
2023/07/07 07:50:53;;;;;;;95.40;56.60;;;21.60;58.50;;;;;;4930145;28;90604;-44
2023/07/07 07:53:19;;;;;;;98.78;56.58;;;21.60;58.60;;;;;;4927489;28;90133;-43
2023/07/07 07:55:44;;;;;;;97.50;57.03;;;21.70;58.20;;;;;;4930415;28;89876;-43
2023/07/07 07:58:11;;;;;;;96.03;56.30;;;21.70;57.90;;;;;;4925207;28;89910;-43
2023/07/07 08:00:36;;;;;;;102.00;56.80;;;21.70;58.30;;;;;;4920684;28;89992;-44
2023/07/07 08:03:02;;;;;;;92.90;56.10;;;21.80;58.00;;;;;;4925536;28;94170;-43
2023/07/07 08:05:27;;;;;;;95.78;56.08;;;21.80;58.30;;;;;;4928564;28;90493;-43
2023/07/07 08:07:53;;;;;;;101.32;57.05;;;21.90;58.30;;;;;;4933805;28;89232;-44
2023/07/07 08:10:19;;;;;;;100.50;57.15;;;21.90;58.80;;;;;;4924664;28;90430;-43
2023/07/07 08:12:44;;;;;;;97.10;56.85;;;22.00;58.10;;;;;;4919311;28;90113;-43
2023/07/07 08:15:11;;;;;;;98.63;57.17;;;22.00;58.00;;;;;;4925257;28;90560;-42
2023/07/07 08:17:37;;;;;;;98.38;56.85;;;22.00;58.70;;;;;;4930017;28;89664;-43
2023/07/07 08:20:03;;;;;;;98.20;56.53;;;22.10;59.00;;;;;;4924376;28;91427;-44
2023/07/07 08:22:28;;;;;;;102.03;56.78;;;22.10;58.30;;;;;;4935383;28;89711;-43
2023/07/07 08:24:56;;;;;;;96.82;56.38;;;22.10;58.40;;;;;;4929481;28;89714;-46
2023/07/07 08:27:24;;;;;;;98.72;56.72;;;22.20;58.10;;;;;;4931287;28;89831;-43
2023/07/07 08:29:50;;;;;;;96.20;56.53;;;22.20;58.10;;;;;;4942784;28;91040;-45
2023/07/07 08:32:21;;;;;;;95.43;55.78;;;22.30;58.10;;;;;;4933262;28;89218;-44
2023/07/07 08:34:51;;;;;;;94.20;56.53;;;22.30;57.70;;;;;;4938380;28;90268;-44
2023/07/07 08:37:17;;;;;;;95.68;56.33;;;22.30;57.10;;;;;;4937500;28;89605;-44
2023/07/07 08:39:44;;;;;;;98.50;56.65;;;22.40;57.30;;;;;;4931082;28;91935;-43
2023/07/07 08:42:40;;;;;;;98.97;56.67;;;22.40;58.30;;;;;;4939695;28;91533;-45
2023/07/07 08:45:13;;;;;;;95.72;56.25;;;22.40;57.90;;;;;;4941781;28;89630;-43
2023/07/07 08:47:50;;;;;;;95.75;56.55;;;22.50;57.80;;;;;;4945372;28;92176;-43
2023/07/07 08:50:41;;;;;;;96.97;56.28;;;22.50;57.60;;;;;;4936479;28;90243;-42
2023/07/07 08:53:35;;;;;;;92.22;56.20;;;22.60;57.10;;;;;;4928278;28;89689;-42
2023/07/07 08:56:24;;;;;;;97.25;57.03;;;22.60;57.30;;;;;;4939176;28;90345;-42
2023/07/07 08:58:58;;;;;;;95.40;56.47;;;22.60;58.20;;;;;;4936009;28;92559;-42
2023/07/07 09:02:34;;;;;;;98.13;56.95;;;22.70;57.80;;;;;;4930708;28;91461;-42
2023/07/07 09:05:13;;;;;;;98.70;56.15;;;22.70;57.40;;;;;;4832812;28;89751;-42
2023/07/07 09:08:28;;;;;;;97.05;56.38;;;22.80;57.90;;;;;;4836663;28;91831;-43
2023/07/07 09:11:03;;;;;;;96.60;56.00;;;22.80;59.30;;;;;;4884713;28;90049;-43
2023/07/07 09:13:33;;;;;;;97.97;56.75;;;22.90;59.70;;;;;;4935344;28;90213;-42
2023/07/07 09:16:15;;;;;;;95.60;56.23;;;22.90;59.70;;;;;;4926119;28;90005;-42
2023/07/07 09:18:47;;;;;;;95.80;56.47;;;22.90;59.60;;;;;;4926976;28;89714;-42
2023/07/07 09:21:35;;;;;;;95.65;56.20;;;23.00;58.70;;;;;;4925855;28;92332;-42
2023/07/07 09:24:09;;;;;;;95.47;56.17;;;23.00;58.20;;;;;;4935936;28;89495;-41
2023/07/07 09:26:36;;;;;;;95.45;56.15;;;23.00;59.10;;;;;;4934245;28;89113;-42
2023/07/07 09:29:06;;;;;;;94.30;55.75;;;23.10;58.30;;;;;;4930695;28;90342;-42
2023/07/07 09:31:41;;;;;;;98.80;56.25;;;23.10;58.30;;;;;;4926477;28;89600;-42
2023/07/07 09:34:13;;;;;;;95.38;56.55;;;23.10;58.10;;;;;;4932950;28;95364;-42
2023/07/07 09:36:46;;;;;;;96.20;56.22;;;23.20;58.30;;;;;;4932469;28;89856;-42
2023/07/07 09:39:30;;;;;;;100.90;56.75;;;23.20;58.60;;;;;;4929665;28;95782;-44
2023/07/07 09:42:25;;;;;;;97.00;56.30;;;23.20;59.10;;;;;;4925883;28;89651;-43
2023/07/07 09:45:15;;;;;;;93.45;56.38;;;23.30;59.00;;;;;;4929943;28;92245;-42
2023/07/07 09:48:05;;;;;;;98.90;56.55;;;23.30;58.20;;;;;;4940048;28;91130;-42
2023/07/07 09:50:47;;;;;;;96.05;56.60;;;23.40;59.70;;;;;;4936492;28;94162;-42
2023/07/07 09:53:16;;;;;;;99.53;56.92;;;23.40;58.90;;;;;;4942093;28;90848;-43
2023/07/07 09:55:42;;;;;;;94.40;55.95;;;23.40;58.70;;;;;;4935577;28;90049;-42
2023/07/07 09:58:32;;;;;;;98.07;56.53;;;23.40;58.90;;;;;;4924831;28;89735;-43
2023/07/07 10:01:02;;;;;;;92.03;55.85;;;23.50;58.50;;;;;;4931648;28;90514;-42
2023/07/07 10:03:41;;;;;;;92.72;55.92;;;23.50;58.10;;;;;;4932329;28;90448;-43
2023/07/07 10:06:31;;;;;;;97.45;56.38;;;23.60;58.90;;;;;;4932502;28;90296;-42
2023/07/07 10:08:58;;;;;;;94.93;56.53;;;23.60;58.90;;;;;;4937975;28;89991;-42
2023/07/07 10:11:28;;;;;;;93.35;56.05;;;23.60;58.80;;;;;;4935942;28;90847;-42
2023/07/07 10:13:55;;;;;;;93.53;55.90;;;23.70;58.20;;;;;;4932596;28;90380;-42
2023/07/07 10:16:46;;;;;;;94.68;56.28;;;23.70;54.90;;;;;;4938540;28;90802;-42
2023/07/07 10:19:13;;;;;;;94.10;55.85;;;23.70;57.00;;;;;;4928414;28;91007;-42
2023/07/07 10:21:39;;;;;;;97.03;56.45;;;23.80;57.00;;;;;;4916298;28;89548;-43
2023/07/07 10:24:04;;;;;;;100.35;56.78;;;23.80;56.20;;;;;;4941078;28;89878;-44
2023/07/07 10:26:30;;;;;;;94.32;56.40;;;23.80;57.50;;;;;;4938505;28;90419;-43
2023/07/07 10:28:59;;;;;;;94.13;56.38;;;23.80;57.40;;;;;;4931179;28;90719;-42
2023/07/07 10:31:27;;;;;;;93.00;56.33;;;23.80;58.40;;;;;;4929977;28;92241;-43
2023/07/07 10:34:02;;;;;;;97.03;56.95;;;23.90;58.10;;;;;;4938191;28;91545;-43
2023/07/07 10:36:32;;;;;;;96.65;56.78;;;23.90;56.90;;;;;;4926697;28;89782;-42
2023/07/07 10:38:59;;;;;;;98.35;56.67;;;24.00;57.30;;;;;;4931978;28;90728;-43
2023/07/07 10:41:27;;;;;;;93.30;55.85;;;24.00;58.10;;;;;;4930026;28;91551;-45
2023/07/07 10:43:53;;;;;;;93.75;56.38;;;24.10;57.10;;;;;;4934290;28;89947;-44
2023/07/07 10:46:19;;;;;;;95.57;56.47;;;24.10;56.60;;;;;;4934700;28;90361;-43
2023/07/07 10:48:46;;;;;;;95.38;56.47;;;24.10;57.00;;;;;;4929729;28;90392;-43
2023/07/07 10:51:22;;;;;;;97.55;56.78;;;24.20;56.70;;;;;;4929311;28;90740;-43
2023/07/07 10:53:57;;;;;;;94.53;56.47;;;24.20;57.00;;;;;;4937133;28;89861;-42
2023/07/07 10:56:45;;;;;;;94.90;56.70;;;24.30;55.30;;;;;;4934170;28;89818;-45
2023/07/07 10:59:19;;;;;;;94.47;56.55;;;24.40;56.70;;;;;;4941074;28;91074;-43
2023/07/07 11:02:29;;;;;;;93.75;56.67;;;24.40;54.60;;;;;;4935193;28;90270;-43
2023/07/07 11:05:21;;;;;;;94.53;56.78;;;24.50;57.50;;;;;;4940714;28;90115;-43
2023/07/07 11:08:21;;;;;;;94.43;56.55;;;24.60;55.40;;;;;;4930410;28;91256;-42
2023/07/07 11:10:55;;;;;;;93.93;56.42;;;24.70;57.70;;;;;;4937898;28;88865;-42
2023/07/07 11:13:31;;;;;;;95.35;56.55;;;24.70;56.70;;;;;;4944655;28;89424;-44
2023/07/07 11:16:08;;;;;;;94.75;56.95;;;24.80;57.80;;;;;;4941817;28;90169;-43
2023/07/07 11:19:17;;;;;;;94.03;56.53;;;24.90;53.70;;;;;;4941815;28;91557;-40
2023/07/07 11:22:09;;;;;;;94.53;56.97;;;24.90;52.50;;;;;;4926004;28;89948;-41
2023/07/07 11:24:47;;;;;;;96.07;56.83;;;25.00;53.90;;;;;;4941161;28;90085;-43
2023/07/07 11:27:50;;;;;;;95.10;57.10;;;25.10;54.00;;;;;;4939278;28;90146;-44
2023/07/07 11:30:44;;;;;;;97.28;57.47;;;25.20;54.60;;;;;;4920668;28;90247;-43
2023/07/07 11:33:45;;;;;;;94.75;57.08;;;25.30;52.10;;;;;;4935048;28;89591;-43
2023/07/07 11:36:26;;;;;;;94.88;57.42;;;25.40;52.90;;;;;;4940451;28;89911;-42
2023/07/07 11:39:06;;;;;;;;;;;25.40;51.60;;;;;;4939648;28;90532;-45
2023/07/07 11:42:08;;;;;;;97.43;57.35;;;25.50;56.80;;;;;;4940327;28;90531;-41
2023/07/07 11:44:45;;;;;;;96.18;57.50;;;25.60;55.20;;;;;;4933702;28;90587;-42
2023/07/07 11:47:42;;;;;;;97.25;57.38;;;25.60;52.60;;;;;;4941124;28;90786;-42
2023/07/07 11:50:27;;;;;;;95.20;57.30;;;25.70;55.50;;;;;;4936760;28;90407;-43
2023/07/07 11:53:04;;;;;;;94.88;57.30;;;25.70;53.90;;;;;;4939019;28;90240;-43
2023/07/07 11:55:54;;;;;;;94.93;57.38;;;25.80;53.50;;;;;;4935447;28;93192;-43
2023/07/07 11:59:05;;;;;;;96.22;57.42;;;25.80;56.00;;;;;;4939479;28;89514;-43
2023/07/07 12:01:38;;;;;;;96.07;57.50;;;25.90;54.50;;;;;;4938845;28;90168;-43
2023/07/07 12:04:25;;;;;;;97.20;57.47;;;25.90;55.50;;;;;;4940995;28;89909;-42
2023/07/07 12:06:57;;;;;;;95.57;57.65;;;26.00;51.80;;;;;;4940271;28;88949;-44
2023/07/07 12:09:35;;;;;;;96.40;58.08;;;26.00;52.60;;;;;;4940149;28;90339;-47
2023/07/07 12:12:25;;;;;;;97.40;57.65;;;26.10;49.80;;;;;;4940797;28;89729;-45
2023/07/07 12:15:02;;;;;;;97.38;57.80;;;26.20;50.90;;;;;;4938848;28;90762;-42
2023/07/07 12:17:33;;;;;;;97.65;58.50;;;26.30;49.70;;;;;;4937340;28;90791;-45
2023/07/07 12:20:15;;;;;;;97.57;58.58;;;26.30;49.20;;;;;;4931983;28;89529;-44
2023/07/07 12:22:42;;;;;;;97.32;58.25;;;26.40;53.30;;;;;;4938186;28;91934;-44
2023/07/07 12:25:19;;;;;;;97.50;58.28;;;26.40;51.60;;;;;;4933452;28;90265;-42
2023/07/07 12:27:51;;;;;;;97.53;58.13;;;26.50;50.40;;;;;;4941409;28;89824;-44
2023/07/07 12:30:32;;;;;;;99.00;58.55;;;26.50;48.10;;;;;;4942556;28;90142;-42
2023/07/07 12:32:58;;;;;;;99.30;58.55;;;26.50;50.70;;;;;;4931592;28;88800;-44
2023/07/07 12:35:52;;;;;;;97.38;58.00;;;26.60;49.40;;;;;;4939084;28;91185;-45
2023/07/07 12:38:26;;;;;;;96.18;58.47;;;26.60;55.60;;;;;;4941889;28;89946;-46
2023/07/07 12:40:59;;;;;;;98.63;58.33;;;26.70;50.80;;;;;;4935694;28;92418;-42
2023/07/07 12:43:29;;;;;;;96.65;58.25;;;26.70;48.70;;;;;;4934476;28;89789;-44
2023/07/07 12:45:56;;;;;;;97.10;58.10;;;26.70;48.70;;;;;;4930693;28;90196;-44
2023/07/07 12:48:26;;;;;;;96.68;58.13;;;26.70;51.10;;;;;;4936335;28;89881;-46